Relevés horaires Matro (Suisse)


Relevés horaires à Matro - Vendredi 22 Nov. 2019
Heure UTC1 Température [°C] Vent [km/h] Hum. [%] Pres.4 [hPa] Visi. [Km] Nébu. [octa] Préc.5 [mm] Cond.
2m. Res. Ros. Dir.2 Vit. Moy. Raf.3
23:00 -2.5 -11.3 -2.5 SSE 46.3 -- 63.0 100 850(0.1/3h) -- -- -- --
22:00 -2.7 -11.8 -2.7 SSE 50.0 -- 64.8 100 850(0.1/3h) -- -- -- --
21:00 -2.6 -12 -2.6 SSE 53.7 -- 63.0 100 850(-0.1/3h) -- -- -- --
20:00 -2.7 -11.7 -2.7 SSE 48.2 -- 61.1 100 850(0.3/3h) -- -- -- --
19:00 -2.7 -12 -2.7 SSE 51.9 -- 63.0 100 850(0.4/3h) -- -- -- --
18:00 -2.6 -11.7 -2.6 SSE 50.0 -- 74.1 100 850(0.4/3h) -- -- -- --
17:00 -2.5 -12.1 -2.5 SSE 57.4 -- 72.2 100 850(-0.2/3h) -- -- -- --
16:00 -2.5 -12.2 -2.5 SSE 59.3 -- 70.4 100 850(0.0/3h) -- -- -- --
15:00 -3.0 -12.6 -6.8 SE 55.6 -- 70.4 75 850(-0.6/3h) -- -- -- --
14:00 -2.4 -11.6 -2.6 SSE 51.9 -- 68.5 99 850(-0.7/3h) -- -- -- --
13:00 -2.9 -12.6 -4.3 SE 57.4 -- 70.4 90 850(-1.4/3h) -- -- -- --
12:00 -1.6 -10.2 -1.6 SSE 48.2 -- 64.8 100 850(-0.5/3h) -- -- -- --
11:00 -3.0 -12.4 -6.5 SE 51.9 -- 64.8 77 850(-0.3/3h) -- -- -- --
10:00 -2.5 -11.1 -2.7 SE 44.4 -- 63.0 99 850(0.4/3h) -- -- -- --
09:00 -2.7 -11.5 -4.5 SSE 46.3 -- 61.1 87 850(0.4/3h) -- -- -- --
08:00 -3.0 -11.8 -3.0 SSE 44.4 -- 55.6 100 850(0.4/3h) -- -- -- --
07:00 -3.0 -12.1 -3.0 SSE 48.2 -- 59.3 100 850(0.2/3h) -- -- -- --
06:00 -2.9 -11.8 -2.9 SSE 46.3 -- 66.7 100 850(0.0/3h) -- -- -- --
05:00 -3.2 -12.8 -3.2 SSE 53.7 -- 66.7 100 850(-0.2/3h) -- -- -- --
04:00 -3.1 -12.1 -3.1 SE 46.3 -- 59.3 100 850(-0.3/3h) -- -- -- --
03:00 -3.5 -12 -3.5 SSE 38.9 -- 55.6 100 850(-0.6/3h) -- -- -- --
02:00 -3.5 -12.3 -3.7 SE 42.6 -- 55.6 99 850(-0.7/3h) -- -- -- --
01:00 -3.6 -12.1 -3.6 SE 38.9 -- 46.3 100 850(-0.7/3h) -- -- -- --
00:00 -3.7 -11.7 -3.9 SE 33.3 -- 40.7 99 850(-0.6/3h) -- -- -- --

1 Coordinated Universal Time. Actuellement il est 23:00 locale et 21:00 UTC.

2 Le vent souffle depuis la direction indiquée vers la direction oposée.

3 Les rafales max. sont disponible 40 min après l'heure du relevé.

4 Pour les stations d'altitude (plus de 600m) le géopotentiel du niveau le plus proche de la pression obligatoire est indiqué.

5 Les stations disposant d'un diffuseur peuvent indiquer "trace". Cela signifie que des précipitations ont touchés le sol mais que la quantité est inférieure à 0.1 mm.

Copyright

Les données affichées sur cette page sont la propriété exclusive de Météo Suisse.

Récapitulatif de la journée
Température [°C] Vent [km/h] Ensoleillement4 [h] Precipitations totale5 [mm] Pression [Hpa]
Min1 Max.2 Moy.3 Max. Min Max.
-4.4 -1.6 0 74.1 0 h 0 min 0 850.0 850.0

1 Température minimale relevée entre 18:00 UTC la veille et 18:00 UTC le jour donné.

2 Température maximale relevée entre 06:00 UTC le jour donné et 06:00 UTC le lendemain.

3 Vent moyen de la journée basé sur les relevés horaires.

4 Ensoleillement en heures relevé entre 06:00 UTC la veille et 06:00 UTC le jour donné.

5 Précipitations totales tombées entre 06:00 UTC la jour donné et 06:00 UTC le lendemain.

Graphiques horaires